Аэропорт: Сары-Арка. Караганда

ICAO: UAKK

METAR:
2018/05/20 19:30
UAKK 201930Z VRB01MPS CAVOK 02/M01 Q1025 R23/0///70 NOSIG RMK QFE722/0962
METAR:
2018/05/20 18:18
TAF UAKK 201700Z 2018/2118 VRB02MPS CAVOK TX25/2110Z TN04/2023Z 
      TEMPO 2018/2103 21005MPS 
      BECMG 2103/2105 26006MPS 
      BECMG 2113/2115 VRB02MPS